sensor_id;sensor_type;location;lat;lon;timestamp;P1;durP1;ratioP1;P2;durP2;ratioP2
41255;SDS011;26989;45.524;10.938;2023-03-11T00:02:23;21.33;;;11.07;;
41255;SDS011;26989;45.524;10.938;2023-03-11T00:04:50;17.70;;;10.52;;
41255;SDS011;26989;45.524;10.938;2023-03-11T00:07:17;18.05;;;10.63;;
41255;SDS011;26989;45.524;10.938;2023-03-11T00:09:44;22.20;;;10.07;;
41255;SDS011;26989;45.524;10.938;2023-03-11T00:12:12;18.15;;;8.88;;
41255;SDS011;26989;45.524;10.938;2023-03-11T00:14:38;12.45;;;8.23;;
41255;SDS011;26989;45.524;10.938;2023-03-11T00:17:05;18.10;;;8.65;;
41255;SDS011;26989;45.524;10.938;2023-03-11T00:19:32;15.23;;;8.07;;
41255;SDS011;26989;45.524;10.938;2023-03-11T00:22:00;15.18;;;8.30;;
41255;SDS011;26989;45.524;10.938;2023-03-11T00:24:28;11.45;;;6.15;;
41255;SDS011;26989;45.524;10.938;2023-03-11T00:26:54;11.23;;;6.95;;
41255;SDS011;26989;45.524;10.938;2023-03-11T00:29:21;10.93;;;7.30;;
41255;SDS011;26989;45.524;10.938;2023-03-11T00:31:48;18.38;;;6.68;;
41255;SDS011;26989;45.524;10.938;2023-03-11T00:34:15;12.55;;;5.85;;
41255;SDS011;26989;45.524;10.938;2023-03-11T00:36:42;15.95;;;6.75;;
41255;SDS011;26989;45.524;10.938;2023-03-11T00:39:09;14.18;;;6.15;;
41255;SDS011;26989;45.524;10.938;2023-03-11T00:41:36;15.75;;;6.90;;
41255;SDS011;26989;45.524;10.938;2023-03-11T00:44:03;15.07;;;7.05;;
41255;SDS011;26989;45.524;10.938;2023-03-11T00:46:29;17.42;;;7.43;;
41255;SDS011;26989;45.524;10.938;2023-03-11T00:48:56;14.93;;;8.27;;
41255;SDS011;26989;45.524;10.938;2023-03-11T00:51:23;11.30;;;8.02;;
41255;SDS011;26989;45.524;10.938;2023-03-11T00:53:50;17.25;;;6.55;;
41255;SDS011;26989;45.524;10.938;2023-03-11T00:56:17;15.35;;;7.85;;
41255;SDS011;26989;45.524;10.938;2023-03-11T00:58:44;12.65;;;7.68;;
41255;SDS011;26989;45.524;10.938;2023-03-11T01:01:13;12.35;;;6.90;;
41255;SDS011;26989;45.524;10.938;2023-03-11T01:03:42;16.27;;;8.27;;
41255;SDS011;26989;45.524;10.938;2023-03-11T01:06:09;13.65;;;7.63;;
41255;SDS011;26989;45.524;10.938;2023-03-11T01:08:38;14.98;;;7.47;;
41255;SDS011;26989;45.524;10.938;2023-03-11T01:11:05;13.23;;;7.38;;
41255;SDS011;26989;45.524;10.938;2023-03-11T01:13:33;10.90;;;7.07;;
41255;SDS011;26989;45.524;10.938;2023-03-11T01:16:01;14.73;;;6.28;;
41255;SDS011;26989;45.524;10.938;2023-03-11T01:18:27;11.25;;;6.93;;
41255;SDS011;26989;45.524;10.938;2023-03-11T01:20:54;13.90;;;6.72;;
41255;SDS011;26989;45.524;10.938;2023-03-11T01:23:21;10.90;;;7.28;;
41255;SDS011;26989;45.524;10.938;2023-03-11T01:25:48;12.48;;;7.47;;
41255;SDS011;26989;45.524;10.938;2023-03-11T01:28:15;12.65;;;7.20;;
41255;SDS011;26989;45.524;10.938;2023-03-11T01:30:43;9.85;;;6.32;;
41255;SDS011;26989;45.524;10.938;2023-03-11T01:33:14;13.60;;;6.57;;
41255;SDS011;26989;45.524;10.938;2023-03-11T01:35:43;9.75;;;5.68;;
41255;SDS011;26989;45.524;10.938;2023-03-11T01:38:11;10.15;;;6.72;;
41255;SDS011;26989;45.524;10.938;2023-03-11T01:40:39;10.05;;;5.85;;
41255;SDS011;26989;45.524;10.938;2023-03-11T01:46:07;10.38;;;5.45;;
41255;SDS011;26989;45.524;10.938;2023-03-11T01:48:41;11.05;;;5.88;;
41255;SDS011;26989;45.524;10.938;2023-03-11T01:51:16;11.88;;;5.72;;
41255;SDS011;26989;45.524;10.938;2023-03-11T01:53:48;11.88;;;5.60;;
41255;SDS011;26989;45.524;10.938;2023-03-11T01:56:14;11.80;;;5.43;;
41255;SDS011;26989;45.524;10.938;2023-03-11T01:58:42;12.60;;;5.80;;
41255;SDS011;26989;45.524;10.938;2023-03-11T02:01:15;14.07;;;5.80;;
41255;SDS011;26989;45.524;10.938;2023-03-11T02:03:42;11.10;;;4.97;;
41255;SDS011;26989;45.524;10.938;2023-03-11T02:06:10;13.07;;;4.82;;
41255;SDS011;26989;45.524;10.938;2023-03-11T02:08:39;11.00;;;5.38;;
41255;SDS011;26989;45.524;10.938;2023-03-11T02:11:08;12.60;;;5.60;;
41255;SDS011;26989;45.524;10.938;2023-03-11T02:13:53;14.02;;;5.47;;
41255;SDS011;26989;45.524;10.938;2023-03-11T02:16:23;11.52;;;5.30;;
41255;SDS011;26989;45.524;10.938;2023-03-11T02:18:51;9.40;;;5.30;;
41255;SDS011;26989;45.524;10.938;2023-03-11T02:26:31;12.10;;;6.15;;
41255;SDS011;26989;45.524;10.938;2023-03-11T02:29:16;12.40;;;5.80;;
41255;SDS011;26989;45.524;10.938;2023-03-11T02:31:45;10.80;;;5.72;;
41255;SDS011;26989;45.524;10.938;2023-03-11T02:34:30;9.93;;;5.03;;
41255;SDS011;26989;45.524;10.938;2023-03-11T02:36:58;11.18;;;6.32;;
41255;SDS011;26989;45.524;10.938;2023-03-11T02:41:56;10.63;;;5.85;;
41255;SDS011;26989;45.524;10.938;2023-03-11T02:44:24;10.23;;;5.82;;
41255;SDS011;26989;45.524;10.938;2023-03-11T02:46:52;8.98;;;5.40;;
41255;SDS011;26989;45.524;10.938;2023-03-11T02:49:19;8.07;;;4.97;;
41255;SDS011;26989;45.524;10.938;2023-03-11T02:51:47;8.18;;;4.75;;
41255;SDS011;26989;45.524;10.938;2023-03-11T02:54:14;9.38;;;5.50;;
41255;SDS011;26989;45.524;10.938;2023-03-11T02:56:41;11.27;;;5.57;;
41255;SDS011;26989;45.524;10.938;2023-03-11T02:59:08;10.10;;;5.45;;
41255;SDS011;26989;45.524;10.938;2023-03-11T03:01:35;13.55;;;5.70;;
41255;SDS011;26989;45.524;10.938;2023-03-11T03:04:02;10.10;;;5.05;;
41255;SDS011;26989;45.524;10.938;2023-03-11T03:06:29;8.90;;;4.90;;
41255;SDS011;26989;45.524;10.938;2023-03-11T03:08:56;13.18;;;5.80;;
41255;SDS011;26989;45.524;10.938;2023-03-11T03:11:22;8.70;;;4.63;;
41255;SDS011;26989;45.524;10.938;2023-03-11T03:13:49;8.52;;;4.90;;
41255;SDS011;26989;45.524;10.938;2023-03-11T03:16:16;8.07;;;4.97;;
41255;SDS011;26989;45.524;10.938;2023-03-11T03:18:43;7.45;;;4.50;;
41255;SDS011;26989;45.524;10.938;2023-03-11T03:21:10;7.45;;;4.13;;
41255;SDS011;26989;45.524;10.938;2023-03-11T03:23:37;7.55;;;4.60;;
41255;SDS011;26989;45.524;10.938;2023-03-11T03:26:04;6.47;;;4.20;;
41255;SDS011;26989;45.524;10.938;2023-03-11T03:28:31;9.95;;;3.83;;
41255;SDS011;26989;45.524;10.938;2023-03-11T03:31:02;7.75;;;4.35;;
41255;SDS011;26989;45.524;10.938;2023-03-11T03:35:57;10.15;;;3.92;;
41255;SDS011;26989;45.524;10.938;2023-03-11T03:38:24;9.20;;;3.80;;
41255;SDS011;26989;45.524;10.938;2023-03-11T03:40:51;7.18;;;3.67;;
41255;SDS011;26989;45.524;10.938;2023-03-11T03:43:18;7.18;;;3.85;;
41255;SDS011;26989;45.524;10.938;2023-03-11T03:45:45;6.38;;;3.65;;
41255;SDS011;26989;45.524;10.938;2023-03-11T03:48:20;7.93;;;4.00;;
41255;SDS011;26989;45.524;10.938;2023-03-11T03:50:46;7.50;;;3.92;;
41255;SDS011;26989;45.524;10.938;2023-03-11T03:53:13;8.65;;;3.92;;
41255;SDS011;26989;45.524;10.938;2023-03-11T03:55:40;11.35;;;4.25;;
41255;SDS011;26989;45.524;10.938;2023-03-11T03:58:07;6.80;;;3.75;;
41255;SDS011;26989;45.524;10.938;2023-03-11T04:00:34;7.03;;;3.47;;
41255;SDS011;26989;45.524;10.938;2023-03-11T04:03:01;7.07;;;3.63;;
41255;SDS011;26989;45.524;10.938;2023-03-11T04:05:29;8.35;;;3.50;;
41255;SDS011;26989;45.524;10.938;2023-03-11T04:07:56;10.45;;;4.10;;
41255;SDS011;26989;45.524;10.938;2023-03-11T04:10:23;6.85;;;3.55;;
41255;SDS011;26989;45.524;10.938;2023-03-11T04:12:50;7.13;;;3.30;;
41255;SDS011;26989;45.524;10.938;2023-03-11T04:15:17;7.03;;;3.78;;
41255;SDS011;26989;45.524;10.938;2023-03-11T04:17:44;7.35;;;3.67;;
41255;SDS011;26989;45.524;10.938;2023-03-11T04:20:11;9.63;;;3.20;;
41255;SDS011;26989;45.524;10.938;2023-03-11T04:22:37;6.97;;;3.67;;
41255;SDS011;26989;45.524;10.938;2023-03-11T04:25:04;8.00;;;3.55;;
41255;SDS011;26989;45.524;10.938;2023-03-11T04:27:32;7.28;;;2.97;;
41255;SDS011;26989;45.524;10.938;2023-03-11T04:29:59;9.40;;;3.83;;
41255;SDS011;26989;45.524;10.938;2023-03-11T04:32:25;6.95;;;3.88;;
41255;SDS011;26989;45.524;10.938;2023-03-11T04:34:52;5.68;;;3.53;;
41255;SDS011;26989;45.524;10.938;2023-03-11T04:37:19;5.57;;;3.88;;
41255;SDS011;26989;45.524;10.938;2023-03-11T04:39:46;7.43;;;3.85;;
41255;SDS011;26989;45.524;10.938;2023-03-11T04:42:13;8.70;;;3.88;;
41255;SDS011;26989;45.524;10.938;2023-03-11T04:44:40;8.27;;;4.20;;
41255;SDS011;26989;45.524;10.938;2023-03-11T04:47:07;8.25;;;3.75;;
41255;SDS011;26989;45.524;10.938;2023-03-11T04:49:35;9.95;;;3.85;;
41255;SDS011;26989;45.524;10.938;2023-03-11T04:52:02;10.55;;;4.00;;
41255;SDS011;26989;45.524;10.938;2023-03-11T04:54:29;8.18;;;4.20;;
41255;SDS011;26989;45.524;10.938;2023-03-11T04:56:56;12.43;;;4.15;;
41255;SDS011;26989;45.524;10.938;2023-03-11T04:59:23;10.23;;;4.13;;
41255;SDS011;26989;45.524;10.938;2023-03-11T05:01:49;7.10;;;3.70;;
41255;SDS011;26989;45.524;10.938;2023-03-11T05:04:16;6.82;;;4.20;;
41255;SDS011;26989;45.524;10.938;2023-03-11T05:06:43;13.15;;;4.50;;
41255;SDS011;26989;45.524;10.938;2023-03-11T05:09:10;10.82;;;3.72;;
41255;SDS011;26989;45.524;10.938;2023-03-11T05:11:37;6.18;;;3.65;;
41255;SDS011;26989;45.524;10.938;2023-03-11T05:14:03;10.35;;;4.63;;
41255;SDS011;26989;45.524;10.938;2023-03-11T05:16:30;10.07;;;4.22;;
41255;SDS011;26989;45.524;10.938;2023-03-11T05:18:57;10.65;;;4.45;;
41255;SDS011;26989;45.524;10.938;2023-03-11T05:21:24;8.52;;;4.40;;
41255;SDS011;26989;45.524;10.938;2023-03-11T05:23:51;9.77;;;4.90;;
41255;SDS011;26989;45.524;10.938;2023-03-11T05:26:17;12.50;;;4.90;;
41255;SDS011;26989;45.524;10.938;2023-03-11T05:28:44;11.57;;;4.60;;
41255;SDS011;26989;45.524;10.938;2023-03-11T05:31:11;8.50;;;4.43;;
41255;SDS011;26989;45.524;10.938;2023-03-11T05:33:38;9.50;;;4.50;;
41255;SDS011;26989;45.524;10.938;2023-03-11T05:36:06;12.13;;;5.00;;
41255;SDS011;26989;45.524;10.938;2023-03-11T05:38:35;9.27;;;4.57;;
41255;SDS011;26989;45.524;10.938;2023-03-11T05:41:02;8.55;;;4.72;;
41255;SDS011;26989;45.524;10.938;2023-03-11T05:43:29;9.15;;;4.55;;
41255;SDS011;26989;45.524;10.938;2023-03-11T05:45:56;12.13;;;5.32;;
41255;SDS011;26989;45.524;10.938;2023-03-11T05:48:23;15.40;;;5.32;;
41255;SDS011;26989;45.524;10.938;2023-03-11T05:50:50;14.80;;;5.80;;
41255;SDS011;26989;45.524;10.938;2023-03-11T05:53:17;8.57;;;4.97;;
41255;SDS011;26989;45.524;10.938;2023-03-11T05:55:43;8.68;;;5.25;;
41255;SDS011;26989;45.524;10.938;2023-03-11T05:58:10;7.22;;;5.05;;
41255;SDS011;26989;45.524;10.938;2023-03-11T06:00:37;8.05;;;5.10;;
41255;SDS011;26989;45.524;10.938;2023-03-11T06:03:04;11.23;;;6.15;;
41255;SDS011;26989;45.524;10.938;2023-03-11T06:05:31;13.27;;;6.38;;
41255;SDS011;26989;45.524;10.938;2023-03-11T06:07:58;12.82;;;4.88;;
41255;SDS011;26989;45.524;10.938;2023-03-11T06:10:24;10.90;;;4.88;;
41255;SDS011;26989;45.524;10.938;2023-03-11T06:12:51;11.10;;;5.00;;
41255;SDS011;26989;45.524;10.938;2023-03-11T06:15:18;9.95;;;4.93;;
41255;SDS011;26989;45.524;10.938;2023-03-11T06:17:45;10.52;;;5.07;;
41255;SDS011;26989;45.524;10.938;2023-03-11T06:20:12;8.35;;;4.75;;
41255;SDS011;26989;45.524;10.938;2023-03-11T06:22:39;9.50;;;4.88;;
41255;SDS011;26989;45.524;10.938;2023-03-11T06:25:05;10.30;;;4.97;;
41255;SDS011;26989;45.524;10.938;2023-03-11T06:27:33;10.43;;;4.95;;
41255;SDS011;26989;45.524;10.938;2023-03-11T06:30:00;15.98;;;5.03;;
41255;SDS011;26989;45.524;10.938;2023-03-11T06:32:27;14.98;;;7.88;;
41255;SDS011;26989;45.524;10.938;2023-03-11T06:34:54;18.13;;;6.82;;
41255;SDS011;26989;45.524;10.938;2023-03-11T06:37:21;9.60;;;5.68;;
41255;SDS011;26989;45.524;10.938;2023-03-11T06:39:53;15.95;;;5.40;;
41255;SDS011;26989;45.524;10.938;2023-03-11T06:42:20;13.13;;;5.65;;
41255;SDS011;26989;45.524;10.938;2023-03-11T06:44:52;15.60;;;5.03;;
41255;SDS011;26989;45.524;10.938;2023-03-11T06:47:18;10.40;;;5.03;;
41255;SDS011;26989;45.524;10.938;2023-03-11T06:49:45;6.82;;;4.85;;
41255;SDS011;26989;45.524;10.938;2023-03-11T06:52:12;10.82;;;5.32;;
41255;SDS011;26989;45.524;10.938;2023-03-11T06:54:39;23.45;;;9.85;;
41255;SDS011;26989;45.524;10.938;2023-03-11T06:57:06;17.10;;;7.97;;
41255;SDS011;26989;45.524;10.938;2023-03-11T06:59:34;11.63;;;5.53;;
41255;SDS011;26989;45.524;10.938;2023-03-11T07:02:02;10.93;;;5.50;;
41255;SDS011;26989;45.524;10.938;2023-03-11T07:04:30;11.30;;;5.60;;
41255;SDS011;26989;45.524;10.938;2023-03-11T07:06:57;11.13;;;6.45;;
41255;SDS011;26989;45.524;10.938;2023-03-11T07:09:24;11.85;;;6.47;;
41255;SDS011;26989;45.524;10.938;2023-03-11T07:11:53;13.60;;;6.35;;
41255;SDS011;26989;45.524;10.938;2023-03-11T07:14:20;11.88;;;5.65;;
41255;SDS011;26989;45.524;10.938;2023-03-11T07:16:48;9.23;;;5.65;;
41255;SDS011;26989;45.524;10.938;2023-03-11T07:19:15;10.13;;;5.28;;
41255;SDS011;26989;45.524;10.938;2023-03-11T07:21:42;12.15;;;5.43;;
41255;SDS011;26989;45.524;10.938;2023-03-11T07:24:10;8.45;;;5.25;;
41255;SDS011;26989;45.524;10.938;2023-03-11T07:26:40;9.80;;;5.30;;
41255;SDS011;26989;45.524;10.938;2023-03-11T07:29:09;13.57;;;5.95;;
41255;SDS011;26989;45.524;10.938;2023-03-11T07:31:36;12.27;;;5.40;;
41255;SDS011;26989;45.524;10.938;2023-03-11T07:34:04;10.05;;;5.35;;
41255;SDS011;26989;45.524;10.938;2023-03-11T07:36:38;8.65;;;4.70;;
41255;SDS011;26989;45.524;10.938;2023-03-11T07:39:07;11.30;;;5.22;;
41255;SDS011;26989;45.524;10.938;2023-03-11T07:41:37;12.05;;;4.70;;
41255;SDS011;26989;45.524;10.938;2023-03-11T07:44:04;13.05;;;6.03;;
41255;SDS011;26989;45.524;10.938;2023-03-11T07:46:33;14.90;;;6.95;;
41255;SDS011;26989;45.524;10.938;2023-03-11T07:49:00;15.50;;;7.28;;
41255;SDS011;26989;45.524;10.938;2023-03-11T07:51:30;16.02;;;7.43;;
41255;SDS011;26989;45.524;10.938;2023-03-11T07:53:58;15.18;;;7.47;;
41255;SDS011;26989;45.524;10.938;2023-03-11T07:56:27;13.88;;;7.97;;
41255;SDS011;26989;45.524;10.938;2023-03-11T07:58:59;15.98;;;8.32;;
41255;SDS011;26989;45.524;10.938;2023-03-11T08:01:27;15.88;;;7.60;;
41255;SDS011;26989;45.524;10.938;2023-03-11T08:04:03;16.67;;;8.07;;
41255;SDS011;26989;45.524;10.938;2023-03-11T08:06:31;18.05;;;7.43;;
41255;SDS011;26989;45.524;10.938;2023-03-11T08:09:00;20.52;;;7.85;;
41255;SDS011;26989;45.524;10.938;2023-03-11T08:11:29;20.70;;;8.27;;
41255;SDS011;26989;45.524;10.938;2023-03-11T08:13:57;14.30;;;8.45;;
41255;SDS011;26989;45.524;10.938;2023-03-11T08:16:24;14.70;;;7.50;;
41255;SDS011;26989;45.524;10.938;2023-03-11T08:18:51;18.50;;;8.02;;
41255;SDS011;26989;45.524;10.938;2023-03-11T08:21:23;24.00;;;8.88;;
41255;SDS011;26989;45.524;10.938;2023-03-11T08:23:51;16.10;;;8.93;;
41255;SDS011;26989;45.524;10.938;2023-03-11T08:26:23;21.25;;;8.75;;
41255;SDS011;26989;45.524;10.938;2023-03-11T08:28:50;14.50;;;7.80;;
41255;SDS011;26989;45.524;10.938;2023-03-11T08:31:21;15.43;;;8.27;;
41255;SDS011;26989;45.524;10.938;2023-03-11T08:33:52;21.50;;;10.38;;
41255;SDS011;26989;45.524;10.938;2023-03-11T08:36:20;21.10;;;10.57;;
41255;SDS011;26989;45.524;10.938;2023-03-11T08:38:47;21.20;;;10.65;;
41255;SDS011;26989;45.524;10.938;2023-03-11T08:41:14;14.77;;;9.15;;
41255;SDS011;26989;45.524;10.938;2023-03-11T08:43:41;20.50;;;10.93;;
41255;SDS011;26989;45.524;10.938;2023-03-11T08:46:13;17.15;;;8.70;;
41255;SDS011;26989;45.524;10.938;2023-03-11T08:48:48;17.88;;;8.18;;
41255;SDS011;26989;45.524;10.938;2023-03-11T08:51:14;16.30;;;8.80;;
41255;SDS011;26989;45.524;10.938;2023-03-11T08:53:42;14.25;;;8.48;;
41255;SDS011;26989;45.524;10.938;2023-03-11T08:56:09;14.43;;;7.65;;
41255;SDS011;26989;45.524;10.938;2023-03-11T08:58:36;13.82;;;8.30;;
41255;SDS011;26989;45.524;10.938;2023-03-11T09:01:04;16.80;;;8.60;;
41255;SDS011;26989;45.524;10.938;2023-03-11T09:03:32;37.38;;;16.55;;
41255;SDS011;26989;45.524;10.938;2023-03-11T09:06:01;22.98;;;11.63;;
41255;SDS011;26989;45.524;10.938;2023-03-11T09:08:30;19.05;;;11.07;;
41255;SDS011;26989;45.524;10.938;2023-03-11T09:10:57;20.05;;;9.40;;
41255;SDS011;26989;45.524;10.938;2023-03-11T09:13:24;17.77;;;10.90;;
41255;SDS011;26989;45.524;10.938;2023-03-11T09:15:51;23.10;;;11.57;;
41255;SDS011;26989;45.524;10.938;2023-03-11T09:18:18;26.67;;;12.65;;
41255;SDS011;26989;45.524;10.938;2023-03-11T09:20:46;20.10;;;11.80;;
41255;SDS011;26989;45.524;10.938;2023-03-11T09:23:14;18.83;;;11.20;;
41255;SDS011;26989;45.524;10.938;2023-03-11T09:25:42;21.27;;;11.02;;
41255;SDS011;26989;45.524;10.938;2023-03-11T09:28:10;18.52;;;11.15;;
41255;SDS011;26989;45.524;10.938;2023-03-11T09:30:36;16.13;;;10.82;;
41255;SDS011;26989;45.524;10.938;2023-03-11T09:33:03;21.75;;;10.93;;
41255;SDS011;26989;45.524;10.938;2023-03-11T09:35:30;16.13;;;10.07;;
41255;SDS011;26989;45.524;10.938;2023-03-11T09:37:58;18.15;;;10.27;;
41255;SDS011;26989;45.524;10.938;2023-03-11T09:40:25;21.30;;;11.43;;
41255;SDS011;26989;45.524;10.938;2023-03-11T09:45:28;20.33;;;10.70;;
41255;SDS011;26989;45.524;10.938;2023-03-11T09:56:22;20.67;;;12.38;;
41255;SDS011;26989;45.524;10.938;2023-03-11T09:58:51;21.58;;;12.48;;
41255;SDS011;26989;45.524;10.938;2023-03-11T10:01:25;20.75;;;12.82;;
41255;SDS011;26989;45.524;10.938;2023-03-11T10:04:17;21.60;;;13.43;;
41255;SDS011;26989;45.524;10.938;2023-03-11T10:06:52;21.42;;;12.02;;
41255;SDS011;26989;45.524;10.938;2023-03-11T10:12:27;26.58;;;14.25;;
41255;SDS011;26989;45.524;10.938;2023-03-11T10:17:55;26.13;;;13.80;;
41255;SDS011;26989;45.524;10.938;2023-03-11T10:28:48;22.58;;;14.00;;
41255;SDS011;26989;45.524;10.938;2023-03-11T10:34:10;20.42;;;13.73;;
41255;SDS011;26989;45.524;10.938;2023-03-11T10:36:49;28.75;;;15.05;;
41255;SDS011;26989;45.524;10.938;2023-03-11T10:39:16;27.38;;;15.38;;
41255;SDS011;26989;45.524;10.938;2023-03-11T10:41:50;27.13;;;15.55;;
41255;SDS011;26989;45.524;10.938;2023-03-11T10:44:26;26.45;;;15.77;;
41255;SDS011;26989;45.524;10.938;2023-03-11T10:46:57;23.90;;;15.05;;
41255;SDS011;26989;45.524;10.938;2023-03-11T10:49:25;27.95;;;16.13;;
41255;SDS011;26989;45.524;10.938;2023-03-11T10:51:52;27.17;;;15.27;;
41255;SDS011;26989;45.524;10.938;2023-03-11T10:54:30;27.10;;;16.85;;
41255;SDS011;26989;45.524;10.938;2023-03-11T10:57:19;26.08;;;16.38;;
41255;SDS011;26989;45.524;10.938;2023-03-11T10:59:59;34.53;;;17.20;;
41255;SDS011;26989;45.524;10.938;2023-03-11T11:02:30;24.40;;;16.13;;
41255;SDS011;26989;45.524;10.938;2023-03-11T11:05:04;29.02;;;16.73;;
41255;SDS011;26989;45.524;10.938;2023-03-11T11:07:43;24.80;;;16.30;;
41255;SDS011;26989;45.524;10.938;2023-03-11T11:15:24;25.10;;;16.45;;
41255;SDS011;26989;45.524;10.938;2023-03-11T11:17:51;26.48;;;16.75;;
41255;SDS011;26989;45.524;10.938;2023-03-11T11:20:21;32.55;;;17.13;;
41255;SDS011;26989;45.524;10.938;2023-03-11T11:22:51;28.33;;;16.05;;
41255;SDS011;26989;45.524;10.938;2023-03-11T11:25:38;24.63;;;16.98;;
41255;SDS011;26989;45.524;10.938;2023-03-11T11:28:14;33.75;;;17.40;;
41255;SDS011;26989;45.524;10.938;2023-03-11T11:30:53;29.20;;;16.38;;
41255;SDS011;26989;45.524;10.938;2023-03-11T11:33:51;26.23;;;16.65;;
41255;SDS011;26989;45.524;10.938;2023-03-11T11:36:24;27.30;;;16.65;;
41255;SDS011;26989;45.524;10.938;2023-03-11T11:38:58;26.08;;;17.27;;
41255;SDS011;26989;45.524;10.938;2023-03-11T11:41:30;30.83;;;18.35;;
41255;SDS011;26989;45.524;10.938;2023-03-11T11:44:04;27.33;;;17.17;;
41255;SDS011;26989;45.524;10.938;2023-03-11T11:52:23;28.00;;;17.02;;
41255;SDS011;26989;45.524;10.938;2023-03-11T11:55:02;32.67;;;17.95;;
41255;SDS011;26989;45.524;10.938;2023-03-11T11:57:32;31.67;;;18.38;;
41255;SDS011;26989;45.524;10.938;2023-03-11T12:00:00;26.95;;;18.45;;
41255;SDS011;26989;45.524;10.938;2023-03-11T12:08:08;29.98;;;17.67;;
41255;SDS011;26989;45.524;10.938;2023-03-11T12:10:52;32.30;;;18.70;;
41255;SDS011;26989;45.524;10.938;2023-03-11T12:27:00;24.48;;;16.42;;
41255;SDS011;26989;45.524;10.938;2023-03-11T12:29:47;28.20;;;18.20;;
41255;SDS011;26989;45.524;10.938;2023-03-11T12:32:30;26.85;;;17.23;;
41255;SDS011;26989;45.524;10.938;2023-03-11T12:35:37;31.02;;;18.02;;
41255;SDS011;26989;45.524;10.938;2023-03-11T12:38:14;26.77;;;16.73;;
41255;SDS011;26989;45.524;10.938;2023-03-11T12:43:26;31.75;;;17.60;;
41255;SDS011;26989;45.524;10.938;2023-03-11T12:45:59;32.47;;;17.05;;
41255;SDS011;26989;45.524;10.938;2023-03-11T13:11:25;27.42;;;14.75;;
41255;SDS011;26989;45.524;10.938;2023-03-11T13:13:52;28.95;;;15.48;;
41255;SDS011;26989;45.524;10.938;2023-03-11T13:16:40;24.73;;;15.32;;
41255;SDS011;26989;45.524;10.938;2023-03-11T13:19:31;26.95;;;15.65;;
41255;SDS011;26989;45.524;10.938;2023-03-11T13:40:49;23.83;;;14.95;;
41255;SDS011;26989;45.524;10.938;2023-03-11T13:43:22;23.20;;;14.40;;
41255;SDS011;26989;45.524;10.938;2023-03-11T13:46:00;26.05;;;14.57;;
41255;SDS011;26989;45.524;10.938;2023-03-11T13:48:29;25.85;;;13.52;;
41255;SDS011;26989;45.524;10.938;2023-03-11T13:51:03;24.95;;;14.95;;
41255;SDS011;26989;45.524;10.938;2023-03-11T13:53:43;25.85;;;14.85;;
41255;SDS011;26989;45.524;10.938;2023-03-11T13:59:29;22.08;;;15.13;;
41255;SDS011;26989;45.524;10.938;2023-03-11T14:04:47;23.67;;;14.73;;
41255;SDS011;26989;45.524;10.938;2023-03-11T14:07:29;24.85;;;14.30;;
41255;SDS011;26989;45.524;10.938;2023-03-11T14:12:46;22.25;;;14.38;;
41255;SDS011;26989;45.524;10.938;2023-03-11T14:15:20;23.58;;;14.25;;
41255;SDS011;26989;45.524;10.938;2023-03-11T14:17:50;21.60;;;14.32;;
41255;SDS011;26989;45.524;10.938;2023-03-11T14:20:22;25.80;;;13.88;;
41255;SDS011;26989;45.524;10.938;2023-03-11T14:22:53;22.98;;;14.15;;
41255;SDS011;26989;45.524;10.938;2023-03-11T14:25:26;19.33;;;12.13;;
41255;SDS011;26989;45.524;10.938;2023-03-11T14:27:57;22.00;;;13.60;;
41255;SDS011;26989;45.524;10.938;2023-03-11T14:30:27;20.10;;;12.27;;
41255;SDS011;26989;45.524;10.938;2023-03-11T14:33:11;24.13;;;13.15;;
41255;SDS011;26989;45.524;10.938;2023-03-11T14:35:52;20.48;;;12.77;;
41255;SDS011;26989;45.524;10.938;2023-03-11T14:38:21;18.75;;;12.75;;
41255;SDS011;26989;45.524;10.938;2023-03-11T14:41:01;20.23;;;13.48;;
41255;SDS011;26989;45.524;10.938;2023-03-11T14:43:36;22.92;;;13.18;;
41255;SDS011;26989;45.524;10.938;2023-03-11T14:46:05;27.50;;;13.32;;
41255;SDS011;26989;45.524;10.938;2023-03-11T14:48:37;21.35;;;13.57;;
41255;SDS011;26989;45.524;10.938;2023-03-11T14:51:15;18.45;;;13.10;;
41255;SDS011;26989;45.524;10.938;2023-03-11T14:56:40;22.02;;;13.25;;
41255;SDS011;26989;45.524;10.938;2023-03-11T14:59:20;21.30;;;12.20;;
41255;SDS011;26989;45.524;10.938;2023-03-11T15:01:52;21.45;;;12.45;;
41255;SDS011;26989;45.524;10.938;2023-03-11T15:04:26;21.48;;;12.85;;
41255;SDS011;26989;45.524;10.938;2023-03-11T15:06:58;16.95;;;11.07;;
41255;SDS011;26989;45.524;10.938;2023-03-11T15:09:25;15.63;;;11.27;;
41255;SDS011;26989;45.524;10.938;2023-03-11T15:11:57;19.65;;;11.05;;
41255;SDS011;26989;45.524;10.938;2023-03-11T15:14:33;22.15;;;12.23;;
41255;SDS011;26989;45.524;10.938;2023-03-11T15:17:09;18.02;;;11.10;;
41255;SDS011;26989;45.524;10.938;2023-03-11T15:20:00;22.90;;;12.20;;
41255;SDS011;26989;45.524;10.938;2023-03-11T15:22:37;24.05;;;12.20;;
41255;SDS011;26989;45.524;10.938;2023-03-11T15:25:14;21.63;;;11.90;;
41255;SDS011;26989;45.524;10.938;2023-03-11T15:27:44;17.95;;;10.73;;
41255;SDS011;26989;45.524;10.938;2023-03-11T15:32:47;24.38;;;12.55;;
41255;SDS011;26989;45.524;10.938;2023-03-11T15:35:16;27.23;;;14.38;;
41255;SDS011;26989;45.524;10.938;2023-03-11T15:40:59;28.88;;;13.60;;
41255;SDS011;26989;45.524;10.938;2023-03-11T15:43:30;28.97;;;14.10;;
41255;SDS011;26989;45.524;10.938;2023-03-11T15:46:00;20.80;;;13.05;;
41255;SDS011;26989;45.524;10.938;2023-03-11T15:48:28;28.33;;;12.85;;
41255;SDS011;26989;45.524;10.938;2023-03-11T15:50:57;19.17;;;11.82;;
41255;SDS011;26989;45.524;10.938;2023-03-11T15:53:25;24.02;;;13.50;;
41255;SDS011;26989;45.524;10.938;2023-03-11T15:55:54;21.65;;;12.75;;
41255;SDS011;26989;45.524;10.938;2023-03-11T15:58:32;22.83;;;13.65;;
41255;SDS011;26989;45.524;10.938;2023-03-11T16:01:00;22.80;;;13.75;;
41255;SDS011;26989;45.524;10.938;2023-03-11T16:03:27;21.55;;;13.85;;
41255;SDS011;26989;45.524;10.938;2023-03-11T16:05:56;25.75;;;16.20;;
41255;SDS011;26989;45.524;10.938;2023-03-11T16:08:23;29.02;;;16.85;;
41255;SDS011;26989;45.524;10.938;2023-03-11T16:10:50;33.42;;;18.10;;
41255;SDS011;26989;45.524;10.938;2023-03-11T16:13:17;30.75;;;15.88;;
41255;SDS011;26989;45.524;10.938;2023-03-11T16:15:44;27.73;;;16.88;;
41255;SDS011;26989;45.524;10.938;2023-03-11T16:18:12;36.17;;;20.50;;
41255;SDS011;26989;45.524;10.938;2023-03-11T16:20:49;42.08;;;18.10;;
41255;SDS011;26989;45.524;10.938;2023-03-11T16:23:27;28.52;;;15.35;;
41255;SDS011;26989;45.524;10.938;2023-03-11T16:26:16;28.05;;;17.08;;
41255;SDS011;26989;45.524;10.938;2023-03-11T16:28:43;30.48;;;16.35;;
41255;SDS011;26989;45.524;10.938;2023-03-11T16:31:10;22.45;;;15.38;;
41255;SDS011;26989;45.524;10.938;2023-03-11T16:33:36;23.95;;;14.93;;
41255;SDS011;26989;45.524;10.938;2023-03-11T16:36:03;28.05;;;15.20;;
41255;SDS011;26989;45.524;10.938;2023-03-11T16:38:32;27.88;;;16.52;;
41255;SDS011;26989;45.524;10.938;2023-03-11T16:41:11;26.15;;;15.70;;
41255;SDS011;26989;45.524;10.938;2023-03-11T16:43:38;26.98;;;15.05;;
41255;SDS011;26989;45.524;10.938;2023-03-11T16:46:04;21.75;;;15.25;;
41255;SDS011;26989;45.524;10.938;2023-03-11T16:48:31;25.95;;;14.93;;